Terminal Aerodrome Forecast
Issued by NWS Albuquerque, NM

Home | Current Version | Previous Version | Text Only | Print | Product List | Glossary On
Versions: 1 2 3 4 5 6 7 8 9 10 11 12 13 14 15 16 17 18 19 20 21 22 23 24 25
459
FTUS45 KABQ 271123
TAFABQ
TAF
KABQ 271123Z 2712/2812 VRB06KT P6SM BKN120
     FM271800 23007KT P6SM FEW120
     FM272130 23010G18KT P6SM SCT130
     FM280300 20008KT P6SM SCT130
     FM280800 16008KT P6SM SKC=

USA.gov is the U.S. government's official web portal to all federal, state and local government web resources and services.